createdAt,value
2022-08-28T00:00:56.135Z,99335.94
2022-08-28T00:01:59.206Z,99340.03
2022-08-28T00:03:02.658Z,99341.84
2022-08-28T00:04:05.058Z,99333.16
2022-08-28T00:05:08.840Z,99333.05
2022-08-28T00:06:11.404Z,99336.87
2022-08-28T00:07:13.769Z,99339.98
2022-08-28T00:08:16.543Z,99333.07
2022-08-28T00:09:18.718Z,99338.69
2022-08-28T00:10:23.842Z,99338.86
2022-08-28T00:11:25.948Z,99333.03
2022-08-28T00:12:28.198Z,99330.27
2022-08-28T00:13:31.377Z,99328.59
2022-08-28T00:14:33.579Z,99323.09
2022-08-28T00:15:37.362Z,99325.45
2022-08-28T00:16:40.696Z,99332.34
2022-08-28T00:17:43.402Z,99315.29
2022-08-28T00:18:45.594Z,99326.38
2022-08-28T00:19:49.239Z,99326.05
2022-08-28T00:20:52.468Z,99331.73
2022-08-28T00:21:54.695Z,99331.34
2022-08-28T00:22:58.620Z,99327.41
2022-08-28T00:24:00.822Z,99328.45
2022-08-28T00:25:03.577Z,99336.64
2022-08-28T00:26:05.902Z,99329.53
2022-08-28T00:27:08.698Z,99330.00
2022-08-28T00:28:13.336Z,99329.83
2022-08-28T00:29:16.484Z,99329.14
2022-08-28T00:30:23.169Z,99326.08
2022-08-28T00:31:25.385Z,99333.81
2022-08-28T00:32:27.517Z,99336.46
2022-08-28T00:33:32.928Z,99331.37
2022-08-28T00:34:35.941Z,99332.72
2022-08-28T00:35:38.740Z,99329.38
2022-08-28T00:36:42.444Z,99329.83
2022-08-28T00:37:45.663Z,99328.27
2022-08-28T00:38:49.956Z,99332.59
2022-08-28T00:39:52.068Z,99325.96
2022-08-28T00:40:59.687Z,99337.25
2022-08-28T00:42:02.303Z,99336.56
2022-08-28T00:43:05.640Z,99333.86
2022-08-28T00:44:16.690Z,99332.47
2022-08-28T00:45:19.803Z,99326.79
2022-08-28T00:46:23.424Z,99328.06
2022-08-28T00:47:26.105Z,99328.92
2022-08-28T00:48:28.354Z,99327.71
2022-08-28T00:49:33.591Z,99322.41
2022-08-28T00:50:36.587Z,99322.74
2022-08-28T00:51:40.200Z,99319.70
2022-08-28T00:52:45.569Z,99321.38
2022-08-28T00:53:48.373Z,99326.67
2022-08-28T00:55:02.434Z,99316.02
2022-08-28T00:56:12.941Z,99318.97
2022-08-28T00:57:27.750Z,99313.59
2022-08-28T00:58:30.263Z,99314.41
2022-08-28T00:59:33.146Z,99313.78
2022-08-28T01:00:37.758Z,99312.96
2022-08-28T01:01:41.656Z,99313.69
2022-08-28T01:02:43.940Z,99312.21
2022-08-28T01:03:45.994Z,99307.20
2022-08-28T01:04:49.146Z,99311.70
2022-08-28T01:05:52.267Z,99308.68
2022-08-28T01:06:56.792Z,99310.92
2022-08-28T01:07:59.106Z,99307.11
2022-08-28T01:09:01.146Z,99309.40
2022-08-28T01:10:06.405Z,99307.66
2022-08-28T01:11:09.355Z,99307.82
2022-08-28T01:12:15.564Z,99310.55
2022-08-28T01:13:17.891Z,99307.83
2022-08-28T01:14:21.878Z,99310.63
2022-08-28T01:15:27.705Z,99307.30
2022-08-28T01:16:33.745Z,99300.20
2022-08-28T01:17:37.232Z,99302.84
2022-08-28T01:18:43.408Z,99293.89
2022-08-28T01:19:49.061Z,99304.62
2022-08-28T01:21:11.994Z,99297.05
2022-08-28T01:22:25.644Z,99292.83
2022-08-28T01:23:40.379Z,99294.46
2022-08-28T01:24:44.970Z,99294.67
2022-08-28T01:25:47.180Z,99300.73
2022-08-28T01:26:49.603Z,99293.44
2022-08-28T01:27:51.763Z,99294.58
2022-08-28T01:28:54.909Z,99297.11
2022-08-28T01:29:57.035Z,99301.84
2022-08-28T01:30:59.212Z,99292.55
2022-08-28T01:32:01.801Z,99290.66
2022-08-28T01:33:03.868Z,99287.95
2022-08-28T01:34:08.424Z,99288.56
2022-08-28T01:35:14.063Z,99286.20
2022-08-28T01:36:18.184Z,99287.39
2022-08-28T01:37:20.428Z,99278.31
2022-08-28T01:38:26.966Z,99287.70
2022-08-28T01:39:27.062Z,99275.30
2022-08-28T01:40:32.891Z,99283.00
2022-08-28T01:41:38.611Z,99280.14
2022-08-28T01:42:43.229Z,99278.33
2022-08-28T01:43:46.475Z,99283.48
2022-08-28T01:44:48.749Z,99276.28
2022-08-28T01:45:54.327Z,99274.08
2022-08-28T01:46:58.305Z,99274.69
2022-08-28T01:48:00.450Z,99273.47
2022-08-28T01:49:03.107Z,99263.81
2022-08-28T01:50:07.807Z,99267.27
2022-08-28T01:51:11.656Z,99261.52
2022-08-28T01:52:13.648Z,99265.30
2022-08-28T01:53:17.756Z,99261.23
2022-08-28T01:54:21.248Z,99263.47
2022-08-28T01:55:23.300Z,99259.85
2022-08-28T01:56:28.054Z,99260.36
2022-08-28T01:57:30.181Z,99256.02
2022-08-28T01:58:37.462Z,99246.95
2022-08-28T01:59:39.028Z,99254.94
2022-08-28T02:00:43.248Z,99247.23
2022-08-28T02:01:45.382Z,99254.56
2022-08-28T02:02:47.471Z,99256.23
2022-08-28T02:03:50.326Z,99252.33
2022-08-28T02:04:52.523Z,99251.19
2022-08-28T02:05:54.661Z,99248.91
2022-08-28T02:06:56.967Z,99257.55
2022-08-28T02:08:00.689Z,99254.05
2022-08-28T02:09:04.563Z,99251.12
2022-08-28T02:10:08.774Z,99258.72
2022-08-28T02:11:12.064Z,99253.50
2022-08-28T02:12:14.183Z,99257.43
2022-08-28T02:13:16.249Z,99262.88
2022-08-28T02:14:19.838Z,99254.41
2022-08-28T02:15:24.636Z,99254.94
2022-08-28T02:16:27.534Z,99260.45
2022-08-28T02:17:30.130Z,99259.31
2022-08-28T02:18:32.528Z,99263.41
2022-08-28T02:19:34.603Z,99262.59
2022-08-28T02:20:37.014Z,99258.65
2022-08-28T02:21:39.881Z,99264.95
2022-08-28T02:22:41.980Z,99267.27
2022-08-28T02:23:46.652Z,99259.34
2022-08-28T02:24:50.204Z,99268.34
2022-08-28T02:25:52.325Z,99269.69
2022-08-28T02:26:54.599Z,99279.00
2022-08-28T02:27:56.761Z,99272.73
2022-08-28T02:28:58.803Z,99279.38
2022-08-28T02:30:01.196Z,99273.11
2022-08-28T02:31:05.978Z,99279.09
2022-08-28T02:32:08.756Z,99281.65
2022-08-28T02:33:10.805Z,99272.05
2022-08-28T02:34:13.014Z,99270.62
2022-08-28T02:35:18.191Z,99273.34
2022-08-28T02:36:21.139Z,99271.96
2022-08-28T02:37:23.297Z,99272.03
2022-08-28T02:38:25.418Z,99266.90
2022-08-28T02:39:27.793Z,99270.23
2022-08-28T02:40:30.282Z,99274.52
2022-08-28T02:41:32.717Z,99271.81
2022-08-28T02:42:34.909Z,99271.50
2022-08-28T02:43:37.053Z,99267.27
2022-08-28T02:44:38.991Z,99267.06
2022-08-28T02:45:40.954Z,99271.81
2022-08-28T02:46:44.351Z,99272.48
2022-08-28T02:47:47.343Z,99269.55
2022-08-28T02:48:50.510Z,99272.19
2022-08-28T02:49:52.627Z,99274.52
2022-08-28T02:50:57.960Z,99272.56
2022-08-28T02:52:00.532Z,99272.56
2022-08-28T02:53:02.622Z,99278.23
2022-08-28T02:54:04.962Z,99278.92
2022-08-28T02:55:09.676Z,99282.55
2022-08-28T02:56:13.686Z,99283.23
2022-08-28T02:57:15.827Z,99279.61
2022-08-28T02:58:17.907Z,99281.56
2022-08-28T02:59:20.364Z,99285.88
2022-08-28T03:00:25.374Z,99290.19
2022-08-28T03:01:28.333Z,99291.98
2022-08-28T03:02:30.518Z,99294.80
2022-08-28T03:03:32.733Z,99303.70
2022-08-28T03:04:37.082Z,99289.82
2022-08-28T03:05:39.169Z,99297.88
2022-08-28T03:06:41.338Z,99295.39
2022-08-28T03:07:43.783Z,99298.20
2022-08-28T03:08:46.211Z,99301.82
2022-08-28T03:09:49.253Z,99310.73
2022-08-28T03:10:51.795Z,99295.68
2022-08-28T03:11:54.351Z,99301.82
2022-08-28T03:12:56.439Z,99295.68
2022-08-28T03:13:58.605Z,99305.28
2022-08-28T03:15:00.699Z,99307.27
2022-08-28T03:16:03.791Z,99305.44
2022-08-28T03:17:07.908Z,99305.44
2022-08-28T03:18:11.485Z,99302.80
2022-08-28T03:19:14.272Z,99306.58
2022-08-28T03:20:16.897Z,99311.87
2022-08-28T03:21:18.844Z,99314.67
2022-08-28T03:22:21.210Z,99311.61
2022-08-28T03:23:23.549Z,99323.05
2022-08-28T03:24:25.629Z,99330.00
2022-08-28T03:25:27.694Z,99329.16
2022-08-28T03:26:30.962Z,99329.31
2022-08-28T03:27:33.192Z,99333.91
2022-08-28T03:28:38.804Z,99336.11
2022-08-28T03:29:41.129Z,99343.89
2022-08-28T03:30:44.363Z,99341.94
2022-08-28T03:31:46.550Z,99352.23
2022-08-28T03:32:49.027Z,99351.10
2022-08-28T03:33:52.673Z,99360.17
2022-08-28T03:34:54.826Z,99361.15
2022-08-28T03:35:57.652Z,99360.84
2022-08-28T03:36:59.897Z,99365.47
2022-08-28T03:38:01.968Z,99362.50
2022-08-28T03:39:06.006Z,99361.43
2022-08-28T03:40:10.263Z,99366.18
2022-08-28T03:41:14.723Z,99368.70
2022-08-28T03:42:17.003Z,99363.69
2022-08-28T03:43:21.979Z,99359.53
2022-08-28T03:44:24.069Z,99360.07
2022-08-28T03:45:26.127Z,99359.91
2022-08-28T03:46:31.143Z,99358.13
2022-08-28T03:47:36.339Z,99362.72
2022-08-28T03:48:38.697Z,99362.72
2022-08-28T03:49:42.891Z,99365.36
2022-08-28T03:50:47.104Z,99365.64
2022-08-28T03:51:51.090Z,99365.64
2022-08-28T03:52:53.048Z,99368.70
2022-08-28T03:53:57.428Z,99366.18
2022-08-28T03:55:00.954Z,99366.72
2022-08-28T03:56:09.575Z,99365.05
2022-08-28T03:57:11.666Z,99359.76
2022-08-28T03:58:19.021Z,99362.28
2022-08-28T03:59:18.558Z,99357.81
2022-08-28T04:00:22.883Z,99369.20
2022-08-28T04:01:25.956Z,99357.97
2022-08-28T04:02:28.120Z,99359.76
2022-08-28T04:03:30.740Z,99364.77
2022-08-28T04:04:32.771Z,99359.48
2022-08-28T04:05:34.848Z,99361.15
2022-08-28T04:06:37.282Z,99356.67
2022-08-28T04:07:40.107Z,99357.11
2022-08-28T04:08:42.646Z,99358.78
2022-08-28T04:09:45.696Z,99359.48
2022-08-28T04:10:48.536Z,99360.30
2022-08-28T04:11:50.678Z,99349.49
2022-08-28T04:12:52.632Z,99356.45
2022-08-28T04:13:54.597Z,99354.47
2022-08-28T04:14:56.768Z,99357.97
2022-08-28T04:16:02.195Z,99350.31
2022-08-28T04:17:06.574Z,99355.75
2022-08-28T04:18:09.940Z,99343.23
2022-08-28T04:19:13.554Z,99343.23
2022-08-28T04:20:16.183Z,99351.16
2022-08-28T04:21:21.120Z,99350.47
2022-08-28T04:22:23.622Z,99347.82
2022-08-28T04:23:25.892Z,99353.11
2022-08-28T04:24:27.842Z,99345.87
2022-08-28T04:25:30.839Z,99347.13
2022-08-28T04:26:34.733Z,99344.36
2022-08-28T04:27:36.781Z,99343.66
2022-08-28T04:28:38.933Z,99344.48
2022-08-28T04:29:40.913Z,99347.82
2022-08-28T04:30:43.189Z,99343.51
2022-08-28T04:31:45.435Z,99339.89
2022-08-28T04:32:48.340Z,99346.16
2022-08-28T04:33:51.041Z,99342.53
2022-08-28T04:34:53.204Z,99340.91
2022-08-28T04:35:56.263Z,99338.42
2022-08-28T04:36:59.446Z,99345.39
2022-08-28T04:38:05.383Z,99342.59
2022-08-28T04:39:06.548Z,99339.09
2022-08-28T04:40:10.796Z,99341.45
2022-08-28T04:41:15.549Z,99339.50
2022-08-28T04:42:17.656Z,99341.17
2022-08-28T04:43:19.727Z,99339.20
2022-08-28T04:44:22.349Z,99344.20
2022-08-28T04:45:24.311Z,99342.25
2022-08-28T04:46:26.674Z,99333.31
2022-08-28T04:47:32.446Z,99338.47
2022-08-28T04:48:35.724Z,99334.98
2022-08-28T04:49:38.218Z,99335.95
2022-08-28T04:50:43.459Z,99332.33
2022-08-28T04:51:46.841Z,99334.16
2022-08-28T04:52:50.835Z,99332.33
2022-08-28T04:53:54.470Z,99334.70
2022-08-28T04:54:57.214Z,99331.08
2022-08-28T04:55:59.961Z,99331.89
2022-08-28T04:57:02.131Z,99334.70
2022-08-28T04:58:06.254Z,99330.82
2022-08-28T04:59:09.442Z,99334.59
2022-08-28T05:00:13.012Z,99333.62
2022-08-28T05:01:19.610Z,99341.40
2022-08-28T05:02:21.969Z,99333.91
2022-08-28T05:03:24.090Z,99329.59
2022-08-28T05:04:26.073Z,99327.95
2022-08-28T05:05:28.013Z,99321.97
2022-08-28T05:06:32.271Z,99332.23
2022-08-28T05:07:34.385Z,99326.82
2022-08-28T05:08:36.924Z,99321.66
2022-08-28T05:09:39.233Z,99331.95
2022-08-28T05:10:42.876Z,99325.84
2022-08-28T05:11:45.981Z,99322.19
2022-08-28T05:12:48.179Z,99330.66
2022-08-28T05:13:51.118Z,99329.69
2022-08-28T05:14:55.563Z,99328.55
2022-08-28T05:15:58.390Z,99332.71
2022-08-28T05:17:00.513Z,99327.42
2022-08-28T05:18:02.455Z,99327.73
2022-08-28T05:19:04.512Z,99330.54
2022-08-28T05:20:08.149Z,99329.47
2022-08-28T05:22:24.924Z,99327.20
2022-08-28T05:23:27.855Z,99325.75
2022-08-28T05:24:30.003Z,99325.05
2022-08-28T05:25:37.153Z,99328.23
2022-08-28T05:26:40.478Z,99327.95
2022-08-28T05:27:42.640Z,99331.16
2022-08-28T05:28:45.401Z,99326.88
2022-08-28T05:29:50.028Z,99329.52
2022-08-28T05:30:52.650Z,99333.95
2022-08-28T05:31:54.758Z,99331.16
2022-08-28T05:32:56.901Z,99333.36
2022-08-28T05:34:01.503Z,99337.40
2022-08-28T05:35:04.945Z,99333.62
2022-08-28T05:36:08.767Z,99338.59
2022-08-28T05:37:11.058Z,99337.78
2022-08-28T05:38:15.892Z,99334.98
2022-08-28T05:39:18.061Z,99338.59
2022-08-28T05:40:22.123Z,99341.94
2022-08-28T05:41:27.435Z,99342.91
2022-08-28T05:42:30.928Z,99347.07
2022-08-28T05:43:35.246Z,99339.98
2022-08-28T05:44:37.451Z,99346.79
2022-08-28T05:45:39.727Z,99352.77
2022-08-28T05:46:45.234Z,99352.62
2022-08-28T05:47:47.725Z,99351.48
2022-08-28T05:48:49.798Z,99350.06
2022-08-28T05:49:52.390Z,99341.81
2022-08-28T05:50:56.875Z,99342.34
2022-08-28T05:51:58.850Z,99340.55
2022-08-28T05:53:00.908Z,99344.55
2022-08-28T05:54:03.803Z,99342.59
2022-08-28T05:55:08.159Z,99338.97
2022-08-28T05:56:14.580Z,99346.59
2022-08-28T05:57:17.000Z,99345.30
2022-08-28T05:58:19.533Z,99346.71
2022-08-28T05:59:22.081Z,99352.16
2022-08-28T06:00:25.335Z,99346.02
2022-08-28T06:01:30.090Z,99348.67
2022-08-28T06:02:32.585Z,99345.05
2022-08-28T06:03:35.635Z,99348.67
2022-08-28T06:04:37.846Z,99362.59
2022-08-28T06:05:40.136Z,99351.16
2022-08-28T06:06:42.897Z,99355.63
2022-08-28T06:07:47.732Z,99357.30
2022-08-28T06:08:56.225Z,99353.36
2022-08-28T06:09:56.494Z,99348.22
2022-08-28T06:11:00.144Z,99357.67
2022-08-28T06:12:03.584Z,99357.06
2022-08-28T06:13:05.700Z,99355.48
2022-08-28T06:14:09.704Z,99353.20
2022-08-28T06:15:11.909Z,99354.25
2022-08-28T06:16:16.038Z,99354.48
2022-08-28T06:17:23.464Z,99355.31
2022-08-28T06:18:22.708Z,99358.35
2022-08-28T06:20:29.732Z,99371.34
2022-08-28T06:21:31.829Z,99361.27
2022-08-28T06:22:33.804Z,99370.72
2022-08-28T06:23:36.398Z,99367.63
2022-08-28T06:24:39.696Z,99366.18
2022-08-28T06:25:44.724Z,99368.50
2022-08-28T06:26:46.935Z,99374.19
2022-08-28T06:27:49.049Z,99368.59
2022-08-28T06:28:52.210Z,99371.60
2022-08-28T06:29:54.644Z,99371.30
2022-08-28T06:31:18.397Z,99369.99
2022-08-28T06:32:02.555Z,99366.19
2022-08-28T06:33:06.593Z,99376.50
2022-08-28T06:34:08.907Z,99374.36
2022-08-28T06:35:10.998Z,99367.75
2022-08-28T06:36:13.487Z,99373.56
2022-08-28T06:37:16.739Z,99376.05
2022-08-28T06:38:21.533Z,99369.93
2022-08-28T06:39:23.733Z,99371.27
2022-08-28T06:40:26.401Z,99377.72
2022-08-28T06:41:29.533Z,99373.27
2022-08-28T06:42:32.942Z,99379.09
2022-08-28T06:43:36.097Z,99373.45
2022-08-28T06:44:38.655Z,99375.80
2022-08-28T06:45:42.610Z,99374.18
2022-08-28T06:46:46.710Z,99380.47
2022-08-28T06:47:48.859Z,99369.52
2022-08-28T06:48:53.790Z,99375.68
2022-08-28T06:49:56.313Z,99372.86
2022-08-28T06:50:58.989Z,99373.20
2022-08-28T06:52:01.061Z,99381.67
2022-08-28T06:53:02.996Z,99380.89
2022-08-28T06:54:06.858Z,99373.98
2022-08-28T06:55:10.016Z,99376.81
2022-08-28T06:56:26.127Z,99368.69
2022-08-28T06:57:21.307Z,99372.36
2022-08-28T06:58:23.968Z,99375.02
2022-08-28T06:59:26.061Z,99378.48
2022-08-28T07:00:28.811Z,99372.02
2022-08-28T07:01:34.165Z,99369.19
2022-08-28T07:02:36.291Z,99375.69
2022-08-28T07:03:44.451Z,99370.72
2022-08-28T07:04:44.674Z,99365.78
2022-08-28T07:05:46.806Z,99375.23
2022-08-28T07:06:53.026Z,99368.59
2022-08-28T07:07:53.694Z,99377.38
2022-08-28T07:08:55.763Z,99380.39
2022-08-28T07:09:58.190Z,99367.77
2022-08-28T07:11:13.198Z,99370.78
2022-08-28T07:12:16.028Z,99363.15
2022-08-28T07:13:18.442Z,99371.13
2022-08-28T07:14:20.843Z,99368.80
2022-08-28T07:15:23.204Z,99366.14
2022-08-28T07:16:30.584Z,99371.78
2022-08-28T07:17:32.988Z,99364.17
2022-08-28T07:18:36.442Z,99371.51
2022-08-28T07:19:38.638Z,99374.64
2022-08-28T07:20:40.823Z,99374.64
2022-08-28T07:21:45.106Z,99365.35
2022-08-28T07:22:49.393Z,99368.16
2022-08-28T07:23:54.608Z,99360.99
2022-08-28T07:24:57.233Z,99365.48
2022-08-28T07:26:05.820Z,99362.47
2022-08-28T07:27:08.033Z,99361.83
2022-08-28T07:28:10.117Z,99362.47
2022-08-28T07:29:13.271Z,99359.31
2022-08-28T07:30:16.266Z,99363.80
2022-08-28T07:31:21.671Z,99355.78
2022-08-28T07:32:24.887Z,99362.10
2022-08-28T07:33:28.146Z,99360.59
2022-08-28T07:34:30.628Z,99358.12
2022-08-28T07:35:33.070Z,99355.77
2022-08-28T07:36:36.782Z,99360.22
2022-08-28T07:37:40.643Z,99353.20
2022-08-28T07:38:43.406Z,99358.68
2022-08-28T07:39:45.349Z,99355.98
2022-08-28T07:40:47.960Z,99357.28
2022-08-28T07:41:50.035Z,99358.58
2022-08-28T07:42:52.094Z,99358.25
2022-08-28T07:43:54.751Z,99366.53
2022-08-28T07:44:56.825Z,99361.69
2022-08-28T07:46:02.498Z,99358.69
2022-08-28T07:47:06.166Z,99361.86
2022-08-28T07:48:11.743Z,99350.21
2022-08-28T07:49:14.694Z,99354.17
2022-08-28T07:50:18.507Z,99350.14
2022-08-28T07:51:21.302Z,99350.45
2022-08-28T07:52:27.233Z,99346.61
2022-08-28T07:53:33.196Z,99352.41
2022-08-28T07:54:36.263Z,99350.04
2022-08-28T07:55:38.800Z,99354.66
2022-08-28T07:56:42.365Z,99356.60
2022-08-28T07:57:44.585Z,99352.46
2022-08-28T07:58:47.686Z,99359.64
2022-08-28T07:59:50.444Z,99344.60
2022-08-28T08:00:54.079Z,99345.52
2022-08-28T08:01:56.154Z,99350.78
2022-08-28T08:02:59.407Z,99343.09
2022-08-28T08:04:03.465Z,99341.72
2022-08-28T08:05:06.586Z,99345.07
2022-08-28T08:06:10.275Z,99346.70
2022-08-28T08:07:16.064Z,99340.13
2022-08-28T08:08:18.183Z,99340.13
2022-08-28T08:09:20.884Z,99352.97
2022-08-28T08:10:24.935Z,99340.66
2022-08-28T08:11:27.497Z,99346.55
2022-08-28T08:12:31.630Z,99343.88
2022-08-28T08:13:35.886Z,99349.02
2022-08-28T08:14:39.897Z,99341.50
2022-08-28T08:15:42.035Z,99343.44
2022-08-28T08:16:45.976Z,99345.11
2022-08-28T08:17:48.108Z,99348.24
2022-08-28T08:18:52.997Z,99352.38
2022-08-28T08:19:55.187Z,99354.89
2022-08-28T08:20:57.589Z,99352.03
2022-08-28T08:22:00.507Z,99349.67
2022-08-28T08:23:03.188Z,99353.44
2022-08-28T08:24:06.613Z,99350.95
2022-08-28T08:25:09.768Z,99350.95
2022-08-28T08:26:16.868Z,99341.97
2022-08-28T08:27:18.995Z,99349.37
2022-08-28T08:28:21.055Z,99352.87
2022-08-28T08:29:23.228Z,99347.83
2022-08-28T08:30:26.934Z,99343.88
2022-08-28T08:31:32.407Z,99350.03
2022-08-28T08:32:34.816Z,99349.30
2022-08-28T08:33:39.748Z,99349.05
2022-08-28T08:34:45.308Z,99345.35
2022-08-28T08:35:47.313Z,99352.63
2022-08-28T08:36:49.900Z,99346.56
2022-08-28T08:37:51.885Z,99344.55
2022-08-28T08:38:59.421Z,99340.50
2022-08-28T08:40:00.829Z,99343.28
2022-08-28T08:41:12.833Z,99340.07
2022-08-28T08:42:27.686Z,99340.50
2022-08-28T08:43:33.283Z,99341.08
2022-08-28T08:44:41.929Z,99344.02
2022-08-28T08:45:47.126Z,99336.66
2022-08-28T08:47:13.224Z,99342.00
2022-08-28T08:48:31.826Z,99344.94
2022-08-28T08:49:37.417Z,99339.33
2022-08-28T08:50:41.486Z,99334.06
2022-08-28T08:51:53.409Z,99332.54
2022-08-28T08:53:17.458Z,99337.52
2022-08-28T08:54:20.762Z,99335.47
2022-08-28T08:55:29.921Z,99333.91
2022-08-28T08:56:34.659Z,99335.92
2022-08-28T08:57:38.445Z,99330.23
2022-08-28T08:58:44.033Z,99330.49
2022-08-28T08:59:46.716Z,99336.09
2022-08-28T09:01:02.303Z,99338.40
2022-08-28T09:02:17.424Z,99338.20
2022-08-28T09:03:44.296Z,99327.72
2022-08-28T09:04:56.405Z,99337.91
2022-08-28T09:06:02.209Z,99331.25
2022-08-28T09:07:23.451Z,99335.98
2022-08-28T09:08:32.240Z,99336.55
2022-08-28T09:09:37.998Z,99336.64
2022-08-28T09:10:43.793Z,99333.41
2022-08-28T09:12:24.106Z,99334.98
2022-08-28T09:13:56.601Z,99334.42
2022-08-28T09:15:02.253Z,99331.75
2022-08-28T09:16:08.077Z,99336.25
2022-08-28T09:17:12.420Z,99327.98
2022-08-28T09:18:21.120Z,99331.75
2022-08-28T09:19:23.279Z,99337.16
2022-08-28T09:20:32.881Z,99336.34
2022-08-28T09:21:34.737Z,99338.81
2022-08-28T09:22:37.623Z,99338.81
2022-08-28T09:23:42.037Z,99334.68
2022-08-28T09:24:44.304Z,99329.53
2022-08-28T09:25:51.342Z,99332.01
2022-08-28T09:26:57.399Z,99335.08
2022-08-28T09:28:09.239Z,99340.77
2022-08-28T09:29:17.183Z,99334.07
2022-08-28T09:30:31.697Z,99330.84
2022-08-28T09:31:37.282Z,99326.02
2022-08-28T09:32:46.442Z,99332.20
2022-08-28T09:33:51.457Z,99333.67
2022-08-28T09:35:17.667Z,99331.91
2022-08-28T09:36:35.666Z,99338.51
2022-08-28T09:37:39.578Z,99329.03
2022-08-28T09:38:42.644Z,99336.94
2022-08-28T09:39:48.777Z,99324.98
2022-08-28T09:40:51.058Z,99332.52
2022-08-28T09:41:56.646Z,99322.02
2022-08-28T09:43:08.234Z,99322.02
2022-08-28T09:44:16.169Z,99330.34
2022-08-28T09:45:21.435Z,99326.13
2022-08-28T09:46:32.124Z,99326.64
2022-08-28T09:47:49.042Z,99331.48
2022-08-28T09:48:51.208Z,99325.76
2022-08-28T09:49:53.635Z,99333.00
2022-08-28T09:51:00.289Z,99326.63
2022-08-28T09:52:06.038Z,99324.75
2022-08-28T09:53:14.801Z,99322.72
2022-08-28T09:54:30.664Z,99323.56
2022-08-28T09:55:56.351Z,99321.19
2022-08-28T09:57:00.047Z,99326.13
2022-08-28T09:58:04.083Z,99324.09
2022-08-28T09:59:10.192Z,99311.38
2022-08-28T10:00:13.843Z,99318.38
2022-08-28T10:01:37.096Z,99328.67
2022-08-28T10:02:42.927Z,99317.73
2022-08-28T10:03:57.602Z,99318.75
2022-08-28T10:05:12.726Z,99318.75
2022-08-28T10:06:23.550Z,99310.80
2022-08-28T10:07:41.741Z,99314.13
2022-08-28T10:09:05.691Z,99322.45
2022-08-28T10:10:17.206Z,99314.50
2022-08-28T10:11:39.003Z,99321.52
2022-08-28T10:12:45.193Z,99316.55
2022-08-28T10:15:19.423Z,99305.69
2022-08-28T10:16:44.402Z,99314.06
2022-08-28T10:17:58.914Z,99310.34
2022-08-28T10:19:11.053Z,99307.23
2022-08-28T10:20:26.289Z,99310.27
2022-08-28T10:21:41.286Z,99318.72
2022-08-28T10:23:08.232Z,99311.11
2022-08-28T10:24:35.201Z,99308.02
2022-08-28T10:25:50.512Z,99309.52
2022-08-28T10:27:08.353Z,99308.78
2022-08-28T10:28:20.621Z,99305.34
2022-08-28T10:31:00.047Z,99304.91
2022-08-28T10:32:17.950Z,99306.06
2022-08-28T10:33:40.378Z,99297.11
2022-08-28T10:35:04.349Z,99324.12
2022-08-28T10:36:32.931Z,99316.70
2022-08-28T10:37:36.299Z,99316.19
2022-08-28T10:38:51.334Z,99306.63
2022-08-28T10:39:58.343Z,99307.58
2022-08-28T10:41:26.063Z,99307.67
2022-08-28T10:42:36.309Z,99304.60
2022-08-28T10:43:42.286Z,99308.88
2022-08-28T10:44:57.231Z,99309.04
2022-08-28T10:46:05.480Z,99297.55
2022-08-28T10:47:10.686Z,99309.55
2022-08-28T10:48:29.606Z,99312.11
2022-08-28T10:49:35.361Z,99303.84
2022-08-28T10:50:46.907Z,99303.98
2022-08-28T10:51:52.581Z,99303.54
2022-08-28T10:53:04.071Z,99307.67
2022-08-28T10:54:10.822Z,99301.06
2022-08-28T10:55:28.327Z,99304.75
2022-08-28T10:56:40.069Z,99303.66
2022-08-28T10:57:57.054Z,99307.67
2022-08-28T10:58:59.355Z,99312.20
2022-08-28T11:00:14.424Z,99315.05
2022-08-28T11:01:22.891Z,99309.38
2022-08-28T11:02:26.561Z,99315.20
2022-08-28T11:03:35.065Z,99323.99
2022-08-28T11:04:36.824Z,99324.06
2022-08-28T11:07:11.071Z,99317.74
2022-08-28T11:08:28.581Z,99314.53
2022-08-28T11:09:34.228Z,99309.48
2022-08-28T11:10:49.585Z,99319.34
2022-08-28T11:12:01.980Z,99323.11
2022-08-28T11:13:05.364Z,99321.66
2022-08-28T11:14:10.059Z,99309.86
2022-08-28T11:15:36.703Z,99324.30
2022-08-28T11:16:41.864Z,99342.81
2022-08-28T11:17:46.575Z,99331.31
2022-08-28T11:19:01.509Z,99320.19
2022-08-28T11:20:20.509Z,99324.07
2022-08-28T11:21:30.053Z,99327.55
2022-08-28T11:22:46.075Z,99330.33
2022-08-28T11:23:52.158Z,99317.50
2022-08-28T11:25:12.698Z,99319.29
2022-08-28T11:26:19.122Z,99324.30
2022-08-28T11:27:24.934Z,99324.00
2022-08-28T11:28:43.028Z,99328.52
2022-08-28T11:30:12.180Z,99327.52
2022-08-28T11:31:19.143Z,99329.12
2022-08-28T11:32:35.349Z,99322.41
2022-08-28T11:33:52.005Z,99342.20
2022-08-28T11:34:59.828Z,99322.45
2022-08-28T11:36:04.651Z,99325.65
2022-08-28T11:37:06.768Z,99320.55
2022-08-28T11:38:09.507Z,99325.96
2022-08-28T11:39:18.155Z,99317.81
2022-08-28T11:40:34.019Z,99329.01
2022-08-28T11:41:38.213Z,99331.12
2022-08-28T11:42:40.373Z,99328.32
2022-08-28T11:43:44.747Z,99333.10
2022-08-28T11:44:46.885Z,99336.41
2022-08-28T11:46:01.157Z,99344.23
2022-08-28T11:47:37.367Z,99340.87
2022-08-28T11:48:46.030Z,99336.66
2022-08-28T11:49:48.115Z,99341.68
2022-08-28T11:50:54.502Z,99341.12
2022-08-28T11:52:03.097Z,99341.67
2022-08-28T11:54:38.459Z,99335.78
2022-08-28T11:55:47.874Z,99336.45
2022-08-28T11:57:06.619Z,99339.20
2022-08-28T11:58:32.718Z,99339.20
2022-08-28T11:59:41.656Z,99338.06
2022-08-28T12:01:07.114Z,99334.66
2022-08-28T12:02:32.880Z,99339.25
2022-08-28T12:04:08.063Z,99337.13
2022-08-28T12:05:18.001Z,99339.96
2022-08-28T12:06:47.227Z,99344.16
2022-08-28T12:07:50.743Z,99342.64
2022-08-28T12:08:59.590Z,99349.64
2022-08-28T12:10:05.348Z,99353.21
2022-08-28T12:11:07.688Z,99345.49
2022-08-28T12:12:25.779Z,99340.25
2022-08-28T12:13:49.243Z,99339.26
2022-08-28T12:15:03.946Z,99333.91
2022-08-28T12:16:08.222Z,99330.23
2022-08-28T12:17:23.015Z,99341.48
2022-08-28T12:18:48.644Z,99341.58
2022-08-28T12:21:35.374Z,99334.89
2022-08-28T12:22:53.974Z,99339.83
2022-08-28T12:25:47.439Z,99336.00
2022-08-28T12:26:48.548Z,99332.05
2022-08-28T12:27:53.111Z,99338.61
2022-08-28T12:29:01.992Z,99339.41
2022-08-28T12:30:06.152Z,99340.69
2022-08-28T12:31:24.640Z,99343.72
2022-08-28T12:32:39.122Z,99340.61
2022-08-28T12:33:50.861Z,99341.17
2022-08-28T12:35:02.951Z,99343.64
2022-08-28T12:36:08.671Z,99341.55
2022-08-28T12:37:51.216Z,99345.86
2022-08-28T12:38:49.878Z,99350.30
2022-08-28T12:39:54.393Z,99349.05
2022-08-28T12:40:58.150Z,99347.79
2022-08-28T12:42:02.046Z,99345.36
2022-08-28T12:43:07.788Z,99345.61
2022-08-28T12:44:11.268Z,99351.97
2022-08-28T12:45:17.016Z,99357.80
2022-08-28T12:46:27.376Z,99351.60
2022-08-28T12:47:29.829Z,99341.91
2022-08-28T12:48:41.381Z,99344.84
2022-08-28T12:49:44.667Z,99339.41
2022-08-28T12:51:01.562Z,99342.34
2022-08-28T12:52:22.364Z,99333.16
2022-08-28T12:53:24.461Z,99341.06
2022-08-28T12:54:28.381Z,99335.57
2022-08-28T12:55:31.531Z,99341.98
2022-08-28T12:56:37.753Z,99341.12
2022-08-28T12:57:43.883Z,99338.70
2022-08-28T12:58:47.039Z,99339.24
2022-08-28T12:59:54.985Z,99345.05
2022-08-28T13:01:01.175Z,99340.52
2022-08-28T13:03:16.512Z,99339.16
2022-08-28T13:04:37.357Z,99350.65
2022-08-28T13:05:41.207Z,99340.94